createdAt,value
2018-09-28T00:01:57.752Z,20.70
2018-09-28T00:04:39.246Z,20.60
2018-09-28T00:07:20.206Z,20.60
2018-09-28T00:10:01.874Z,20.50
2018-09-28T00:12:44.068Z,20.50
2018-09-28T00:15:26.700Z,20.40
2018-09-28T00:18:08.836Z,20.30
2018-09-28T00:20:50.175Z,20.40
2018-09-28T00:23:31.761Z,20.30
2018-09-28T00:26:13.375Z,20.30
2018-09-28T00:28:54.961Z,20.30
2018-09-28T00:31:36.944Z,20.20
2018-09-28T00:34:18.221Z,20.20
2018-09-28T00:37:00.013Z,20.20
2018-09-28T00:39:41.629Z,20.10
2018-09-28T00:42:23.293Z,20.10
2018-09-28T00:45:04.984Z,20.10
2018-09-28T00:47:47.007Z,20.10
2018-09-28T00:50:28.079Z,20.10
2018-09-28T00:53:09.851Z,20.00
2018-09-28T00:55:51.439Z,20.00
2018-09-28T00:58:32.967Z,20.00
2018-09-28T01:01:13.927Z,20.00
2018-09-28T01:03:55.796Z,20.00
2018-09-28T01:06:37.793Z,20.00
2018-09-28T01:09:19.995Z,20.00
2018-09-28T01:12:01.281Z,20.00
2018-09-28T01:14:42.686Z,19.90
2018-09-28T01:17:25.383Z,19.90
2018-09-28T01:20:06.966Z,19.90
2018-09-28T01:22:48.373Z,19.90
2018-09-28T01:25:29.962Z,19.90
2018-09-28T01:28:11.446Z,19.80
2018-09-28T01:30:53.220Z,19.80
2018-09-28T01:33:34.617Z,19.90
2018-09-28T01:36:16.394Z,19.80
2018-09-28T01:38:57.584Z,19.80
2018-09-28T01:41:39.391Z,19.80
2018-09-28T01:44:21.567Z,19.80
2018-09-28T01:47:02.803Z,19.70
2018-09-28T01:49:44.776Z,19.70
2018-09-28T01:52:25.635Z,19.70
2018-09-28T01:55:07.204Z,19.70
2018-09-28T01:57:49.000Z,19.60
2018-09-28T02:00:30.279Z,19.60
2018-09-28T02:03:12.189Z,19.60
2018-09-28T02:05:53.764Z,19.60
2018-09-28T02:08:35.487Z,19.50
2018-09-28T02:11:17.144Z,19.60
2018-09-28T02:13:58.426Z,19.60
2018-09-28T02:16:40.253Z,19.60
2018-09-28T02:19:21.231Z,19.50
2018-09-28T02:22:02.990Z,19.50
2018-09-28T02:24:44.478Z,19.50
2018-09-28T02:27:26.169Z,19.50
2018-09-28T02:30:07.755Z,19.50
2018-09-28T02:32:49.782Z,19.40
2018-09-28T02:35:31.035Z,19.40
2018-09-28T02:38:12.544Z,19.40
2018-09-28T02:40:54.234Z,19.40
2018-09-28T02:43:36.956Z,19.40
2018-09-28T02:46:18.326Z,19.30
2018-09-28T02:49:00.354Z,19.30
2018-09-28T02:51:41.486Z,19.30
2018-09-28T02:54:23.409Z,19.30
2018-09-28T02:57:04.796Z,19.20
2018-09-28T02:59:46.719Z,19.20
2018-09-28T03:02:28.659Z,19.20
2018-09-28T03:05:09.840Z,19.10
2018-09-28T03:07:52.055Z,19.10
2018-09-28T03:10:33.116Z,19.10
2018-09-28T03:13:14.622Z,19.20
2018-09-28T03:15:56.491Z,19.10
2018-09-28T03:18:38.086Z,19.10
2018-09-28T03:21:19.706Z,19.20
2018-09-28T03:24:02.419Z,19.10
2018-09-28T03:26:44.082Z,19.20
2018-09-28T03:29:25.674Z,19.20
2018-09-28T03:32:07.975Z,19.10
2018-09-28T03:34:48.949Z,19.10
2018-09-28T03:37:30.539Z,19.10
2018-09-28T03:40:12.027Z,19.10
2018-09-28T03:42:53.541Z,19.10
2018-09-28T03:45:35.027Z,19.10
2018-09-28T03:48:16.440Z,19.00
2018-09-28T03:50:57.968Z,19.00
2018-09-28T03:53:40.044Z,19.10
2018-09-28T03:56:21.276Z,19.00
2018-09-28T03:59:03.144Z,19.00
2018-09-28T04:01:44.659Z,19.00
2018-09-28T04:04:26.257Z,19.00
2018-09-28T04:07:08.275Z,19.00
2018-09-28T04:09:49.711Z,19.00
2018-09-28T04:12:31.109Z,19.10
2018-09-28T04:15:12.552Z,19.00
2018-09-28T04:17:54.267Z,19.00
2018-09-28T04:20:35.872Z,19.00
2018-09-28T04:23:17.362Z,19.00
2018-09-28T04:25:59.152Z,19.00
2018-09-28T04:28:41.466Z,19.00
2018-09-28T04:31:22.438Z,19.00
2018-09-28T04:34:04.030Z,19.00
2018-09-28T04:36:46.029Z,19.00
2018-09-28T04:39:29.017Z,19.00
2018-09-28T04:42:10.636Z,19.00
2018-09-28T04:44:52.404Z,19.00
2018-09-28T04:47:34.009Z,19.00
2018-09-28T04:50:16.091Z,19.00
2018-09-28T04:52:57.581Z,18.90
2018-09-28T04:55:38.960Z,18.90
2018-09-28T04:58:20.344Z,18.90
2018-09-28T05:01:01.951Z,18.90
2018-09-28T05:03:44.144Z,18.80
2018-09-28T05:06:25.134Z,18.80
2018-09-28T05:09:07.226Z,18.80
2018-09-28T05:11:48.313Z,18.80
2018-09-28T05:14:29.671Z,18.70
2018-09-28T05:17:11.171Z,18.80
2018-09-28T05:19:53.686Z,18.70
2018-09-28T05:22:34.748Z,18.70
2018-09-28T05:25:16.302Z,18.70
2018-09-28T05:27:58.148Z,18.70
2018-09-28T05:30:44.974Z,18.70
2018-09-28T05:33:21.404Z,18.70
2018-09-28T05:36:02.992Z,18.70
2018-09-28T05:38:45.077Z,18.70
2018-09-28T05:41:26.504Z,18.70
2018-09-28T05:44:08.106Z,18.70
2018-09-28T05:46:49.661Z,18.70
2018-09-28T05:49:31.366Z,18.70
2018-09-28T05:52:13.244Z,18.70
2018-09-28T05:54:54.939Z,18.70
2018-09-28T05:57:36.952Z,18.70
2018-09-28T06:00:23.126Z,18.70
2018-09-28T06:03:06.276Z,18.80
2018-09-28T06:05:52.638Z,18.80
2018-09-28T06:08:34.371Z,18.80
2018-09-28T06:11:15.858Z,18.80
2018-09-28T06:13:57.445Z,18.90
2018-09-28T06:16:38.661Z,19.00
2018-09-28T06:19:19.879Z,19.00
2018-09-28T06:22:01.892Z,19.10
2018-09-28T06:24:43.761Z,19.20
2018-09-28T06:27:25.279Z,19.30
2018-09-28T06:30:07.289Z,19.40
2018-09-28T06:32:48.875Z,19.50
2018-09-28T06:35:29.664Z,19.60
2018-09-28T06:38:11.317Z,19.70
2018-09-28T06:40:53.324Z,19.80
2018-09-28T06:43:35.174Z,19.90
2018-09-28T06:46:16.180Z,20.00
2018-09-28T06:48:57.802Z,20.10
2018-09-28T06:51:39.371Z,20.20
2018-09-28T06:54:21.222Z,20.30
2018-09-28T06:57:02.942Z,20.40
2018-09-28T06:59:44.380Z,20.50
2018-09-28T07:02:26.318Z,20.60
2018-09-28T07:05:07.932Z,20.70
2018-09-28T07:07:49.395Z,20.80
2018-09-28T07:10:31.213Z,21.00
2018-09-28T07:13:13.685Z,21.10
2018-09-28T07:15:55.508Z,21.20
2018-09-28T07:18:37.199Z,21.30
2018-09-28T07:21:18.869Z,21.40
2018-09-28T07:24:00.725Z,21.50
2018-09-28T07:26:41.969Z,21.70
2018-09-28T07:29:23.662Z,21.90
2018-09-28T07:32:05.927Z,22.00
2018-09-28T07:34:47.654Z,22.20
2018-09-28T07:37:28.618Z,22.40
2018-09-28T07:40:11.120Z,22.60
2018-09-28T07:42:52.838Z,22.80
2018-09-28T07:45:34.824Z,23.10
2018-09-28T07:48:16.438Z,23.30
2018-09-28T07:50:57.909Z,23.40
2018-09-28T07:53:39.947Z,23.40
2018-09-28T07:56:21.075Z,23.50
2018-09-28T07:59:02.583Z,23.70
2018-09-28T08:01:44.360Z,23.80
2018-09-28T08:04:25.944Z,23.90
2018-09-28T08:07:07.442Z,23.90
2018-09-28T08:09:49.308Z,24.10
2018-09-28T08:12:31.903Z,24.20
2018-09-28T08:15:12.998Z,24.40
2018-09-28T08:17:54.578Z,24.50
2018-09-28T08:20:35.860Z,25.20
2018-09-28T08:23:17.709Z,26.20
2018-09-28T08:25:59.168Z,27.30
2018-09-28T08:28:40.839Z,28.10
2018-09-28T08:31:22.547Z,29.00
2018-09-28T08:34:04.138Z,29.50
2018-09-28T08:36:45.614Z,30.30
2018-09-28T08:39:27.842Z,30.90
2018-09-28T08:42:08.918Z,31.60
2018-09-28T08:44:50.493Z,32.40
2018-09-28T08:47:32.367Z,33.20
2018-09-28T08:50:13.563Z,33.90
2018-09-28T08:52:55.175Z,34.50
2018-09-28T08:55:36.747Z,34.60
2018-09-28T08:58:18.415Z,34.80
2018-09-28T09:00:59.918Z,35.00
2018-09-28T09:03:41.592Z,35.20
2018-09-28T09:06:23.387Z,34.60
2018-09-28T09:09:06.015Z,34.70
2018-09-28T09:11:47.417Z,34.60
2018-09-28T09:14:29.573Z,34.30
2018-09-28T09:17:10.762Z,34.10
2018-09-28T09:19:52.350Z,33.90
2018-09-28T09:22:33.935Z,34.00
2018-09-28T09:25:15.631Z,34.40
2018-09-28T09:27:57.249Z,33.20
2018-09-28T09:30:39.317Z,33.60
2018-09-28T09:33:20.291Z,34.00
2018-09-28T09:36:01.779Z,34.30
2018-09-28T09:38:43.264Z,34.30
2018-09-28T09:41:25.056Z,34.10
2018-09-28T09:44:06.684Z,34.10
2018-09-28T09:46:48.664Z,33.60
2018-09-28T09:49:30.688Z,33.10
2018-09-28T09:52:11.926Z,32.30
2018-09-28T09:58:01.220Z,31.50
2018-09-28T10:00:47.747Z,30.80
2018-09-28T10:03:34.325Z,30.60
2018-09-28T10:06:16.018Z,30.20
2018-09-28T10:08:57.710Z,30.20
2018-09-28T10:11:39.419Z,29.80
2018-09-28T10:14:21.006Z,29.60
2018-09-28T10:17:02.678Z,29.60
2018-09-28T10:19:44.474Z,29.60
2018-09-28T10:22:26.511Z,29.60
2018-09-28T10:25:07.442Z,29.30
2018-09-28T10:27:48.905Z,29.30
2018-09-28T10:30:30.697Z,29.10
2018-09-28T10:33:12.105Z,29.20
2018-09-28T10:35:53.659Z,29.40
2018-09-28T10:38:35.833Z,29.10
2018-09-28T10:41:16.974Z,29.00
2018-09-28T10:43:58.872Z,29.00
2018-09-28T10:46:40.480Z,29.20
2018-09-28T10:49:22.052Z,29.10
2018-09-28T10:52:03.842Z,29.30
2018-09-28T10:54:45.434Z,29.40
2018-09-28T10:57:27.946Z,29.50
2018-09-28T11:00:08.912Z,29.30
2018-09-28T11:02:51.282Z,29.20
2018-09-28T11:05:32.424Z,29.20
2018-09-28T11:08:14.567Z,29.20
2018-09-28T11:10:56.004Z,29.10
2018-09-28T11:13:38.340Z,29.20
2018-09-28T11:16:19.489Z,29.00
2018-09-28T11:19:01.251Z,28.80
2018-09-28T11:21:42.302Z,28.60
2018-09-28T11:24:23.951Z,28.60
2018-09-28T11:27:06.350Z,28.40
2018-09-28T11:29:47.636Z,28.30
2018-09-28T11:32:29.426Z,28.10
2018-09-28T11:35:11.537Z,28.00
2018-09-28T11:37:52.733Z,27.90
2018-09-28T11:40:33.989Z,28.00
2018-09-28T11:43:15.800Z,28.00
2018-09-28T11:45:57.775Z,28.30
2018-09-28T11:48:39.060Z,28.50
2018-09-28T11:51:20.748Z,28.10
2018-09-28T11:54:02.232Z,28.20
2018-09-28T11:56:43.927Z,28.00
2018-09-28T11:59:25.620Z,28.00
2018-09-28T12:02:07.671Z,27.90
2018-09-28T12:04:48.505Z,28.00
2018-09-28T12:07:30.264Z,28.10
2018-09-28T12:10:12.210Z,28.30
2018-09-28T12:12:53.663Z,28.50
2018-09-28T12:15:35.619Z,28.50
2018-09-28T12:18:17.206Z,28.40
2018-09-28T12:20:58.851Z,28.30
2018-09-28T12:23:40.432Z,28.50
2018-09-28T12:26:22.103Z,28.70
2018-09-28T12:29:03.177Z,28.90
2018-09-28T12:31:44.765Z,28.60
2018-09-28T12:34:26.385Z,28.60
2018-09-28T12:37:08.074Z,28.60
2018-09-28T12:39:49.862Z,28.50
2018-09-28T12:42:32.220Z,28.60
2018-09-28T12:45:13.431Z,28.60
2018-09-28T12:47:55.056Z,28.30
2018-09-28T12:50:36.534Z,28.30
2018-09-28T12:53:17.910Z,28.30
2018-09-28T12:55:59.702Z,28.30
2018-09-28T12:58:41.175Z,28.30
2018-09-28T13:01:22.572Z,28.10
2018-09-28T13:04:04.136Z,28.10
2018-09-28T13:06:46.137Z,28.10
2018-09-28T13:09:27.212Z,28.10
2018-09-28T13:12:09.045Z,28.00
2018-09-28T13:14:50.550Z,28.30
2018-09-28T13:17:32.007Z,28.50
2018-09-28T13:20:14.316Z,28.30
2018-09-28T13:22:56.186Z,28.50
2018-09-28T13:25:37.385Z,28.40
2018-09-28T13:28:19.066Z,28.40
2018-09-28T13:31:00.770Z,28.50
2018-09-28T13:33:42.551Z,28.50
2018-09-28T13:36:23.856Z,28.50
2018-09-28T13:39:06.169Z,28.40
2018-09-28T13:41:47.092Z,28.70
2018-09-28T13:44:28.923Z,28.80
2018-09-28T13:47:10.021Z,28.80
2018-09-28T13:49:51.366Z,28.60
2018-09-28T13:52:32.336Z,28.70
2018-09-28T13:55:14.118Z,28.80
2018-09-28T13:57:56.429Z,28.90
2018-09-28T14:00:38.355Z,29.00
2018-09-28T14:03:19.394Z,29.10
2018-09-28T14:06:01.291Z,28.90
2018-09-28T14:08:42.442Z,28.90
2018-09-28T14:11:24.323Z,28.80
2018-09-28T14:14:06.360Z,28.80
2018-09-28T14:16:47.513Z,28.50
2018-09-28T14:19:30.150Z,28.40
2018-09-28T14:22:11.845Z,28.20
2018-09-28T14:24:54.239Z,28.20
2018-09-28T14:27:35.344Z,28.20
2018-09-28T14:30:17.099Z,28.30
2018-09-28T14:32:58.811Z,28.20
2018-09-28T14:35:40.635Z,28.10
2018-09-28T14:38:22.124Z,28.10
2018-09-28T14:41:02.878Z,27.90
2018-09-28T14:43:43.651Z,28.00
2018-09-28T14:46:25.331Z,27.90
2018-09-28T14:49:06.991Z,27.80
2018-09-28T14:51:48.396Z,27.50
2018-09-28T14:54:29.250Z,27.20
2018-09-28T14:57:10.859Z,26.90
2018-09-28T14:59:52.134Z,26.70
2018-09-28T15:02:33.796Z,26.60
2018-09-28T15:05:15.315Z,26.70
2018-09-28T15:07:57.331Z,26.70
2018-09-28T15:10:38.341Z,26.70
2018-09-28T15:13:19.974Z,26.70
2018-09-28T15:16:01.566Z,26.60
2018-09-28T15:18:43.111Z,26.60
2018-09-28T15:21:25.001Z,26.60
2018-09-28T15:24:06.505Z,26.50
2018-09-28T15:26:48.244Z,26.60
2018-09-28T15:29:29.722Z,26.50
2018-09-28T15:32:12.050Z,26.40
2018-09-28T15:34:52.816Z,26.40
2018-09-28T15:37:35.289Z,26.50
2018-09-28T15:40:16.786Z,26.40
2018-09-28T15:42:57.757Z,26.40
2018-09-28T15:45:39.343Z,26.40
2018-09-28T15:48:21.246Z,26.40
2018-09-28T15:51:03.256Z,26.40
2018-09-28T15:53:44.506Z,26.60
2018-09-28T15:56:25.437Z,27.00
2018-09-28T15:59:07.696Z,27.10
2018-09-28T16:01:48.875Z,27.10
2018-09-28T16:04:31.131Z,26.90
2018-09-28T16:07:12.290Z,26.80
2018-09-28T16:09:53.231Z,26.60
2018-09-28T16:12:35.050Z,26.40
2018-09-28T16:15:16.028Z,26.30
2018-09-28T16:17:57.824Z,26.20
2018-09-28T16:20:38.787Z,26.10
2018-09-28T16:23:20.308Z,26.00
2018-09-28T16:26:02.150Z,25.90
2018-09-28T16:28:44.149Z,25.80
2018-09-28T16:31:25.490Z,25.80
2018-09-28T16:34:07.279Z,25.70
2018-09-28T16:36:48.864Z,25.70
2018-09-28T16:39:30.110Z,25.60
2018-09-28T16:42:11.992Z,25.50
2018-09-28T16:44:53.296Z,25.50
2018-09-28T16:47:35.103Z,25.50
2018-09-28T16:50:16.876Z,25.40
2018-09-28T16:52:58.344Z,25.40
2018-09-28T16:55:40.567Z,25.40
2018-09-28T16:58:21.999Z,25.40
2018-09-28T17:01:03.620Z,25.30
2018-09-28T17:03:45.126Z,25.30
2018-09-28T17:06:26.922Z,25.30
2018-09-28T17:09:09.539Z,25.30
2018-09-28T17:11:51.406Z,25.30
2018-09-28T17:14:33.132Z,25.30
2018-09-28T17:17:14.992Z,25.20
2018-09-28T17:19:56.552Z,25.20
2018-09-28T17:22:38.399Z,25.10
2018-09-28T17:25:20.271Z,25.10
2018-09-28T17:28:02.064Z,25.10
2018-09-28T17:30:43.756Z,25.00
2018-09-28T17:33:25.675Z,24.90
2018-09-28T17:36:07.544Z,24.90
2018-09-28T17:38:50.079Z,24.90
2018-09-28T17:41:31.748Z,24.80
2018-09-28T17:44:13.232Z,24.70
2018-09-28T17:46:54.840Z,24.70
2018-09-28T17:49:36.614Z,24.70
2018-09-28T17:52:18.318Z,24.70
2018-09-28T17:54:59.893Z,24.60
2018-09-28T17:57:42.558Z,24.50
2018-09-28T18:00:24.303Z,24.50
2018-09-28T18:03:06.168Z,24.50
2018-09-28T18:05:48.600Z,24.50
2018-09-28T18:08:30.217Z,24.40
2018-09-28T18:11:11.107Z,24.40
2018-09-28T18:13:52.958Z,24.30
2018-09-28T18:16:35.391Z,24.30
2018-09-28T18:19:17.158Z,24.30
2018-09-28T18:21:59.304Z,24.30
2018-09-28T18:24:40.972Z,24.30
2018-09-28T18:27:22.024Z,24.20
2018-09-28T18:30:03.736Z,24.20
2018-09-28T18:32:44.794Z,24.20
2018-09-28T18:35:26.407Z,24.10
2018-09-28T18:38:08.096Z,24.10
2018-09-28T18:40:49.219Z,24.10
2018-09-28T18:43:30.978Z,24.10
2018-09-28T18:46:12.656Z,24.10
2018-09-28T18:48:54.138Z,24.10
2018-09-28T18:51:35.713Z,24.10
2018-09-28T18:54:17.302Z,24.00
2018-09-28T18:56:59.031Z,24.00
2018-09-28T18:59:40.780Z,24.00
2018-09-28T19:02:22.398Z,24.10
2018-09-28T19:05:04.180Z,24.00
2018-09-28T19:07:45.592Z,24.00
2018-09-28T19:10:26.418Z,24.00
2018-09-28T19:13:08.784Z,24.00
2018-09-28T19:15:49.622Z,23.90
2018-09-28T19:18:31.307Z,24.00
2018-09-28T19:21:13.014Z,23.90
2018-09-28T19:23:54.975Z,23.90
2018-09-28T19:26:36.655Z,23.90
2018-09-28T19:29:18.275Z,23.90
2018-09-28T19:32:00.895Z,23.90
2018-09-28T19:34:42.495Z,23.90
2018-09-28T19:37:23.459Z,23.90
2018-09-28T19:40:04.539Z,23.90
2018-09-28T19:42:46.492Z,23.90
2018-09-28T19:45:27.914Z,23.90
2018-09-28T19:48:09.746Z,23.90
2018-09-28T19:50:51.188Z,23.80
2018-09-28T19:53:32.862Z,23.80
2018-09-28T19:56:14.783Z,23.90
2018-09-28T19:58:56.546Z,23.80
2018-09-28T20:01:39.468Z,23.90
2018-09-28T20:04:20.769Z,23.80
2018-09-28T20:07:02.541Z,23.80
2018-09-28T20:09:44.156Z,23.80
2018-09-28T20:12:25.951Z,23.80
2018-09-28T20:15:08.437Z,23.80
2018-09-28T20:17:49.509Z,23.80
2018-09-28T20:20:31.101Z,23.80
2018-09-28T20:23:12.792Z,23.80
2018-09-28T20:25:54.479Z,23.80
2018-09-28T20:28:35.969Z,23.80
2018-09-28T20:31:17.758Z,23.80
2018-09-28T20:33:59.762Z,23.80
2018-09-28T20:36:43.600Z,23.70
2018-09-28T20:39:25.386Z,23.80
2018-09-28T20:42:06.980Z,23.70
2018-09-28T20:44:49.289Z,23.70
2018-09-28T20:47:31.180Z,23.70
2018-09-28T20:50:13.181Z,23.70
2018-09-28T20:52:54.360Z,23.70
2018-09-28T20:55:35.902Z,23.70
2018-09-28T20:58:17.353Z,23.70
2018-09-28T21:00:58.990Z,23.70
2018-09-28T21:03:40.510Z,23.60
2018-09-28T21:06:22.097Z,23.70
2018-09-28T21:09:03.708Z,23.60
2018-09-28T21:11:45.403Z,23.60
2018-09-28T21:14:27.068Z,23.60
2018-09-28T21:17:08.657Z,23.60
2018-09-28T21:19:50.382Z,23.60
2018-09-28T21:22:31.235Z,23.50
2018-09-28T21:25:13.038Z,23.50
2018-09-28T21:27:55.727Z,23.60
2018-09-28T21:30:37.555Z,23.50
2018-09-28T21:33:18.943Z,23.60
2018-09-28T21:36:00.620Z,23.60
2018-09-28T21:38:42.387Z,23.50
2018-09-28T21:41:24.637Z,23.50
2018-09-28T21:44:05.823Z,23.50
2018-09-28T21:46:47.258Z,23.50
2018-09-28T21:49:28.943Z,23.50
2018-09-28T21:52:10.533Z,23.50
2018-09-28T21:54:52.224Z,23.50
2018-09-28T21:57:34.352Z,23.50
2018-09-28T22:00:15.411Z,23.40
2018-09-28T22:02:56.858Z,23.50
2018-09-28T22:05:38.476Z,23.40
2018-09-28T22:08:19.988Z,23.40
2018-09-28T22:11:01.756Z,23.40
2018-09-28T22:13:43.301Z,23.40
2018-09-28T22:16:24.829Z,23.40
2018-09-28T22:19:07.033Z,23.40
2018-09-28T22:21:48.391Z,23.40
2018-09-28T22:24:29.599Z,23.30
2018-09-28T22:27:11.551Z,23.40
2018-09-28T22:29:53.182Z,23.40
2018-09-28T22:32:34.980Z,23.30
2018-09-28T22:35:17.417Z,23.30
2018-09-28T22:37:58.479Z,23.30
2018-09-28T22:40:40.172Z,23.30
2018-09-28T22:43:22.353Z,23.30
2018-09-28T22:46:03.430Z,23.30
2018-09-28T22:48:45.122Z,23.30
2018-09-28T22:51:26.629Z,23.30
2018-09-28T22:54:08.118Z,23.30
2018-09-28T22:56:49.995Z,23.30
2018-09-28T22:59:31.817Z,23.30
2018-09-28T23:02:13.573Z,23.30
2018-09-28T23:04:55.700Z,23.20
2018-09-28T23:07:37.012Z,23.20
2018-09-28T23:10:18.954Z,23.20
2018-09-28T23:13:00.134Z,23.20
2018-09-28T23:15:41.825Z,23.10
2018-09-28T23:18:23.598Z,23.10
2018-09-28T23:21:04.901Z,23.10
2018-09-28T23:23:46.848Z,23.00
2018-09-28T23:26:28.688Z,23.00
2018-09-28T23:29:10.492Z,23.00
2018-09-28T23:31:51.978Z,23.00
2018-09-28T23:34:33.578Z,23.00
2018-09-28T23:37:15.631Z,23.00
2018-09-28T23:39:56.972Z,23.00
2018-09-28T23:42:38.635Z,23.00
2018-09-28T23:45:20.324Z,23.10
2018-09-28T23:48:01.952Z,22.90
2018-09-28T23:50:43.602Z,22.90
2018-09-28T23:53:25.290Z,22.90
2018-09-28T23:56:07.104Z,22.90
2018-09-28T23:58:48.777Z,22.90
